createdAt,value
2019-05-07T00:01:57.489Z,96986.01
2019-05-07T00:04:26.036Z,96989.50
2019-05-07T00:06:54.340Z,96984.00
2019-05-07T00:09:23.471Z,96981.88
2019-05-07T00:11:53.321Z,96971.85
2019-05-07T00:14:23.114Z,96969.13
2019-05-07T00:16:53.447Z,96971.00
2019-05-07T00:19:23.085Z,96973.11
2019-05-07T00:21:52.819Z,96969.97
2019-05-07T00:24:22.333Z,96966.93
2019-05-07T00:26:53.045Z,96960.03
2019-05-07T00:29:22.365Z,96963.06
2019-05-07T00:31:52.076Z,96956.12
2019-05-07T00:34:22.146Z,96951.80
2019-05-07T00:36:52.585Z,96951.80
2019-05-07T00:39:22.617Z,96956.19
2019-05-07T00:41:52.585Z,96955.81
2019-05-07T00:44:22.111Z,96947.63
2019-05-07T00:46:52.468Z,96945.47
2019-05-07T00:49:22.198Z,96935.98
2019-05-07T00:51:51.946Z,96937.31
2019-05-07T00:54:20.322Z,96936.09
2019-05-07T00:56:48.628Z,96936.61
2019-05-07T00:59:17.039Z,96934.50
2019-05-07T01:01:45.333Z,96928.61
2019-05-07T01:04:13.853Z,96931.28
2019-05-07T01:06:42.560Z,96926.18
2019-05-07T01:09:12.284Z,96939.43
2019-05-07T01:11:43.031Z,96940.52
2019-05-07T01:14:12.395Z,96942.49
2019-05-07T01:16:42.107Z,96948.78
2019-05-07T01:19:12.601Z,96946.98
2019-05-07T01:21:40.595Z,96941.78
2019-05-07T01:24:08.972Z,96943.13
2019-05-07T01:26:37.334Z,96942.30
2019-05-07T01:29:05.644Z,96934.62
2019-05-07T01:31:38.249Z,96938.97
2019-05-07T01:34:08.206Z,96944.18
2019-05-07T01:36:36.568Z,96937.47
2019-05-07T01:39:06.016Z,96932.04
2019-05-07T01:41:34.319Z,96931.81
2019-05-07T01:44:02.646Z,96926.72
2019-05-07T01:46:32.467Z,96927.22
2019-05-07T01:49:02.941Z,96923.90
2019-05-07T01:51:32.631Z,96924.80
2019-05-07T01:54:02.253Z,96923.14
2019-05-07T01:56:32.967Z,96919.64
2019-05-07T01:59:02.441Z,96927.03
2019-05-07T02:01:35.459Z,96927.48
2019-05-07T02:04:07.988Z,96926.62
2019-05-07T02:06:43.539Z,96930.59
2019-05-07T02:09:16.204Z,96934.60
2019-05-07T02:11:46.266Z,96930.67
2019-05-07T02:14:14.605Z,96934.12
2019-05-07T02:16:42.872Z,96937.67
2019-05-07T02:19:12.662Z,96929.98
2019-05-07T02:21:42.327Z,96927.36
2019-05-07T02:24:12.612Z,96927.80
2019-05-07T02:26:42.725Z,96920.84
2019-05-07T02:29:12.229Z,96917.36
2019-05-07T02:31:43.812Z,96920.40
2019-05-07T02:34:13.811Z,96912.61
2019-05-07T02:36:43.339Z,96917.39
2019-05-07T02:39:29.490Z,96919.13
2019-05-07T02:41:57.833Z,96915.69
2019-05-07T02:44:26.125Z,96911.42
2019-05-07T02:47:04.071Z,96916.60
2019-05-07T02:49:38.984Z,96915.34
2019-05-07T02:52:14.709Z,96920.20
2019-05-07T02:54:56.592Z,96915.89
2019-05-07T02:57:25.235Z,96925.44
2019-05-07T02:59:54.458Z,96925.44
2019-05-07T03:02:24.082Z,96925.41
2019-05-07T03:04:53.364Z,96924.98
2019-05-07T03:07:24.235Z,96922.39
2019-05-07T03:09:53.823Z,96923.69
2019-05-07T03:12:23.750Z,96924.55
2019-05-07T03:14:53.666Z,96923.66
2019-05-07T03:17:24.622Z,96924.52
2019-05-07T03:19:53.749Z,96924.94
2019-05-07T03:22:23.174Z,96921.91
2019-05-07T03:24:53.360Z,96927.03
2019-05-07T03:27:23.538Z,96919.25
2019-05-07T03:29:56.230Z,96921.82
2019-05-07T03:32:27.873Z,96923.09
2019-05-07T03:34:58.485Z,96921.35
2019-05-07T03:37:35.021Z,96924.77
2019-05-07T03:39:58.754Z,96924.33
2019-05-07T03:42:28.112Z,96921.70
2019-05-07T03:45:03.637Z,96919.98
2019-05-07T03:47:33.786Z,96921.25
2019-05-07T03:50:03.381Z,96928.15
2019-05-07T03:52:33.576Z,96925.11
2019-05-07T03:55:03.669Z,96921.19
2019-05-07T03:57:33.310Z,96920.73
2019-05-07T04:00:04.235Z,96929.78
2019-05-07T04:02:33.317Z,96925.45
2019-05-07T04:05:04.188Z,96923.70
2019-05-07T04:07:33.599Z,96919.37
2019-05-07T04:10:04.478Z,96923.22
2019-05-07T04:12:34.291Z,96922.77
2019-05-07T04:15:03.444Z,96930.97
2019-05-07T04:17:33.831Z,96931.41
2019-05-07T04:20:04.490Z,96934.42
2019-05-07T04:22:34.607Z,96925.30
2019-05-07T04:25:06.736Z,96933.03
2019-05-07T04:27:48.869Z,96930.40
2019-05-07T04:30:17.278Z,96933.39
2019-05-07T04:32:53.130Z,96935.06
2019-05-07T04:35:33.470Z,96935.02
2019-05-07T04:38:06.635Z,96934.52
2019-05-07T04:40:33.806Z,96930.13
2019-05-07T04:43:02.927Z,96932.65
2019-05-07T04:45:33.890Z,96934.74
2019-05-07T04:48:03.056Z,96934.76
2019-05-07T04:50:42.603Z,96931.02
2019-05-07T04:53:03.156Z,96932.41
2019-05-07T04:55:33.462Z,96936.61
2019-05-07T04:58:02.970Z,96926.50
2019-05-07T05:00:33.590Z,96925.50
2019-05-07T05:03:12.656Z,96924.14
2019-05-07T05:05:39.700Z,96916.29
2019-05-07T05:08:07.988Z,96919.33
2019-05-07T05:10:36.292Z,96915.70
2019-05-07T05:13:04.583Z,96924.69
2019-05-07T05:15:32.990Z,96920.64
2019-05-07T05:18:02.639Z,96923.56
2019-05-07T05:20:33.614Z,96931.74
2019-05-07T05:23:09.563Z,96929.34
2019-05-07T05:25:39.502Z,96930.02
2019-05-07T05:28:07.880Z,96923.42
2019-05-07T05:30:43.848Z,96926.28
2019-05-07T05:33:12.743Z,96921.28
2019-05-07T05:35:43.162Z,96922.02
2019-05-07T05:38:12.703Z,96925.73
2019-05-07T05:40:42.717Z,96920.27
2019-05-07T05:43:15.662Z,96929.86
2019-05-07T05:45:48.394Z,96925.86
2019-05-07T05:48:16.708Z,96933.77
2019-05-07T05:51:04.973Z,96939.80
2019-05-07T05:53:35.179Z,96931.63
2019-05-07T05:56:05.182Z,96932.67
2019-05-07T05:58:35.207Z,96929.35
2019-05-07T06:01:05.330Z,96933.77
2019-05-07T06:03:35.290Z,96936.48
2019-05-07T06:06:17.327Z,96930.05
2019-05-07T06:08:47.608Z,96933.27
2019-05-07T06:11:17.640Z,96931.50
2019-05-07T06:13:52.607Z,96929.75
2019-05-07T06:16:22.136Z,96933.75
2019-05-07T06:18:52.622Z,96933.06
2019-05-07T06:21:25.008Z,96935.89
2019-05-07T06:24:02.245Z,96936.95
2019-05-07T06:26:31.912Z,96927.48
2019-05-07T06:29:02.307Z,96935.06
2019-05-07T06:31:32.537Z,96934.70
2019-05-07T06:34:01.849Z,96929.36
2019-05-07T06:36:32.915Z,96932.91
2019-05-07T06:39:12.566Z,96931.66
2019-05-07T06:41:59.044Z,96935.69
2019-05-07T06:44:27.621Z,96933.04
2019-05-07T06:46:56.019Z,96934.48
2019-05-07T06:49:24.471Z,96870.75
2019-05-07T06:51:52.958Z,96926.37
2019-05-07T06:54:22.543Z,96931.05
2019-05-07T06:56:52.357Z,96931.73
2019-05-07T06:59:24.800Z,96929.97
2019-05-07T07:01:57.621Z,96927.08
2019-05-07T07:04:27.617Z,96928.20
2019-05-07T07:06:57.631Z,96930.72
2019-05-07T07:09:45.796Z,96928.02
2019-05-07T07:12:18.499Z,96928.56
2019-05-07T07:14:46.898Z,96929.25
2019-05-07T07:17:15.190Z,96925.92
2019-05-07T07:19:43.606Z,96921.71
2019-05-07T07:22:12.974Z,96922.21
2019-05-07T07:24:42.428Z,96921.03
2019-05-07T07:27:12.970Z,96914.14
2019-05-07T07:29:44.960Z,96908.25
2019-05-07T07:32:14.409Z,96909.92
2019-05-07T07:34:44.368Z,96907.58
2019-05-07T07:37:15.807Z,96904.69
2019-05-07T07:39:44.280Z,96904.92
2019-05-07T07:42:12.568Z,96898.14
2019-05-07T07:44:42.565Z,96896.72
2019-05-07T07:47:12.892Z,96896.91
2019-05-07T07:49:42.056Z,96895.22
2019-05-07T07:52:12.177Z,96890.66
2019-05-07T07:54:42.904Z,96889.72
2019-05-07T07:57:14.940Z,96890.23
2019-05-07T07:59:44.920Z,96897.03
2019-05-07T08:02:14.918Z,96888.63
2019-05-07T08:04:43.286Z,96887.09
2019-05-07T08:07:12.363Z,96886.75
2019-05-07T08:09:42.782Z,96880.86
2019-05-07T08:12:12.727Z,96878.59
2019-05-07T08:14:42.672Z,96880.80
2019-05-07T08:17:13.046Z,96877.90
2019-05-07T08:19:42.871Z,96876.90
2019-05-07T08:22:12.074Z,96875.11
2019-05-07T08:24:42.667Z,96878.59
2019-05-07T08:27:14.684Z,96865.70
2019-05-07T08:29:42.812Z,96867.80
2019-05-07T08:32:18.096Z,96869.81
2019-05-07T08:34:48.035Z,96864.92
2019-05-07T08:37:16.356Z,96863.34
2019-05-07T08:39:44.729Z,96864.66
2019-05-07T08:42:13.041Z,96854.78
2019-05-07T08:45:02.943Z,96849.45
2019-05-07T08:47:39.075Z,96845.66
2019-05-07T08:50:07.458Z,96847.20
2019-05-07T08:52:35.913Z,96844.63
2019-05-07T08:55:07.109Z,96842.48
2019-05-07T08:57:35.569Z,96843.27
2019-05-07T09:00:05.808Z,96840.13
2019-05-07T09:02:34.177Z,96838.55
2019-05-07T09:05:03.107Z,96839.81
2019-05-07T09:07:32.196Z,96837.84
2019-05-07T09:10:02.504Z,96829.11
2019-05-07T09:12:31.865Z,96823.20
2019-05-07T09:15:02.152Z,96827.59
2019-05-07T09:17:31.875Z,96814.87
2019-05-07T09:20:02.349Z,96810.47
2019-05-07T09:22:32.292Z,96812.55
2019-05-07T09:25:03.069Z,96820.17
2019-05-07T09:27:38.293Z,96813.78
2019-05-07T09:30:08.872Z,96799.97
2019-05-07T09:32:42.530Z,96797.46
2019-05-07T09:35:12.606Z,96796.62
2019-05-07T09:37:42.087Z,96797.30
2019-05-07T09:40:12.594Z,96789.39
2019-05-07T09:42:42.220Z,96789.39
2019-05-07T09:45:12.105Z,96790.67
2019-05-07T09:47:41.807Z,96775.55
2019-05-07T09:50:11.943Z,96772.43
2019-05-07T09:52:42.542Z,96777.34
2019-05-07T09:55:17.184Z,96770.16
2019-05-07T09:57:42.574Z,96768.45
2019-05-07T10:00:12.344Z,96772.35
2019-05-07T10:02:42.496Z,96746.91
2019-05-07T10:05:11.306Z,96746.91
2019-05-07T10:07:39.620Z,96771.23
2019-05-07T10:10:11.793Z,96767.66
2019-05-07T10:12:56.994Z,96770.02
2019-05-07T10:15:25.382Z,96769.80
2019-05-07T10:17:55.308Z,96769.76
2019-05-07T10:20:24.039Z,96770.27
2019-05-07T10:22:52.885Z,96753.95
2019-05-07T10:25:22.396Z,96762.02
2019-05-07T10:27:53.032Z,96760.98
2019-05-07T10:30:21.916Z,96753.22
2019-05-07T10:32:52.728Z,96762.05
2019-05-07T10:35:22.961Z,96754.91
2019-05-07T10:37:52.814Z,96757.55
2019-05-07T10:40:22.404Z,96763.70
2019-05-07T10:42:51.909Z,96763.80
2019-05-07T10:45:38.387Z,96753.46
2019-05-07T10:48:17.543Z,96745.50
2019-05-07T10:50:47.586Z,96740.09
2019-05-07T10:53:15.879Z,96728.94
2019-05-07T10:55:45.661Z,96725.05
2019-05-07T10:58:14.158Z,96716.93
2019-05-07T11:00:42.865Z,96707.91
2019-05-07T11:03:12.649Z,96698.20
2019-05-07T11:05:41.906Z,96698.03
2019-05-07T11:08:10.406Z,96695.17
2019-05-07T11:10:39.150Z,96696.06
2019-05-07T11:13:07.496Z,96711.26
2019-05-07T11:15:36.101Z,96705.97
2019-05-07T11:18:06.427Z,96659.26
2019-05-07T11:20:46.538Z,96700.83
2019-05-07T11:23:05.170Z,96692.33
2019-05-07T11:25:33.489Z,96689.52
2019-05-07T11:28:02.808Z,96685.13
2019-05-07T11:30:32.085Z,96676.39
2019-05-07T11:33:02.484Z,96678.39
2019-05-07T11:35:31.872Z,96675.95
2019-05-07T11:38:03.787Z,96675.98
2019-05-07T11:40:32.042Z,96659.58
2019-05-07T11:43:02.641Z,96665.80
2019-05-07T11:45:41.821Z,96651.31
2019-05-07T11:48:13.108Z,96664.95
2019-05-07T11:51:03.765Z,96658.52
2019-05-07T11:53:33.170Z,96665.80
2019-05-07T11:56:02.585Z,96654.84
2019-05-07T11:58:32.552Z,96648.19
2019-05-07T12:01:03.945Z,96635.13
2019-05-07T12:03:32.581Z,96633.84
2019-05-07T12:06:02.070Z,96623.86
2019-05-07T12:08:41.017Z,96621.95
2019-05-07T12:11:02.391Z,96614.19
2019-05-07T12:13:32.385Z,96612.39
2019-05-07T12:16:03.025Z,96618.76
2019-05-07T12:18:31.927Z,96617.19
2019-05-07T12:21:03.893Z,96617.20
2019-05-07T12:23:33.619Z,96617.48
2019-05-07T12:26:02.401Z,96611.34
2019-05-07T12:28:32.760Z,96603.52
2019-05-07T12:31:05.491Z,96604.84
2019-05-07T12:33:52.266Z,96595.19
2019-05-07T12:36:22.582Z,96597.72
2019-05-07T12:38:53.081Z,96594.84
2019-05-07T12:41:29.653Z,96593.72
2019-05-07T12:43:59.184Z,96604.23
2019-05-07T12:46:27.576Z,96596.30
2019-05-07T12:48:55.949Z,96595.91
2019-05-07T12:51:36.347Z,96582.12
2019-05-07T12:53:59.365Z,96584.50
2019-05-07T12:56:27.747Z,96583.31
2019-05-07T12:58:56.060Z,96583.61
2019-05-07T13:01:37.853Z,96586.06
2019-05-07T13:04:11.002Z,96583.43
2019-05-07T13:06:51.899Z,96584.67
2019-05-07T13:09:21.998Z,96579.48
2019-05-07T13:11:52.390Z,96569.63
2019-05-07T13:14:21.817Z,96561.72
2019-05-07T13:16:52.283Z,96563.56
2019-05-07T13:19:22.418Z,96568.42
2019-05-07T13:21:50.535Z,96556.20
2019-05-07T13:24:22.734Z,96567.70
2019-05-07T13:26:51.798Z,96559.83
2019-05-07T13:29:22.180Z,96577.10
2019-05-07T13:31:53.858Z,96573.03
2019-05-07T13:34:22.877Z,96564.98
2019-05-07T13:36:54.621Z,96557.88
2019-05-07T13:39:24.861Z,96553.38
2019-05-07T13:41:54.815Z,96556.84
2019-05-07T13:44:24.822Z,96550.94
2019-05-07T13:46:55.369Z,96546.20
2019-05-07T13:49:23.933Z,96531.23
2019-05-07T13:52:03.259Z,96547.78
2019-05-07T13:54:22.358Z,96535.66
2019-05-07T13:56:52.545Z,96527.02
2019-05-07T13:59:22.363Z,96520.89
2019-05-07T14:01:55.299Z,96524.95
2019-05-07T14:04:22.865Z,96522.45
2019-05-07T14:06:52.968Z,96519.98
2019-05-07T14:09:24.366Z,96517.25
2019-05-07T14:11:52.977Z,96519.14
2019-05-07T14:14:22.398Z,96510.55
2019-05-07T14:16:53.075Z,96508.22
2019-05-07T14:19:22.430Z,96498.62
2019-05-07T14:21:52.544Z,96498.30
2019-05-07T14:24:22.440Z,96496.30
2019-05-07T14:26:52.742Z,96497.99
2019-05-07T14:29:24.394Z,96492.63
2019-05-07T14:31:55.969Z,96485.38
2019-05-07T14:34:28.445Z,96484.48
2019-05-07T14:37:12.792Z,96486.33
2019-05-07T14:39:42.549Z,96492.58
2019-05-07T14:42:15.067Z,96484.53
2019-05-07T14:44:48.010Z,96483.27
2019-05-07T14:47:22.068Z,96482.92
2019-05-07T14:49:49.835Z,96471.83
2019-05-07T14:52:30.275Z,96475.36
2019-05-07T14:54:49.195Z,96473.14
2019-05-07T14:57:17.567Z,96472.56
2019-05-07T14:59:45.961Z,96466.70
2019-05-07T15:02:14.432Z,96467.77
2019-05-07T15:04:42.913Z,96457.98
2019-05-07T15:07:12.037Z,96451.88
2019-05-07T15:09:42.430Z,96453.92
2019-05-07T15:12:13.980Z,96448.64
2019-05-07T15:14:42.132Z,96445.91
2019-05-07T15:17:12.831Z,96441.13
2019-05-07T15:19:42.747Z,96442.81
2019-05-07T15:22:24.387Z,96429.14
2019-05-07T15:24:52.777Z,96428.27
2019-05-07T15:27:22.816Z,96441.20
2019-05-07T15:29:52.634Z,96443.48
2019-05-07T15:32:21.798Z,96434.76
2019-05-07T15:34:52.522Z,96441.62
2019-05-07T15:37:20.534Z,96435.90
2019-05-07T15:39:48.864Z,96431.89
2019-05-07T15:42:17.178Z,96434.67
2019-05-07T15:44:46.694Z,96431.28
2019-05-07T15:47:19.031Z,96428.86
2019-05-07T15:49:47.345Z,96421.02
2019-05-07T15:52:17.290Z,96420.59
2019-05-07T15:54:45.587Z,96421.53
2019-05-07T15:57:17.116Z,96416.06
2019-05-07T15:59:45.447Z,96420.84
2019-05-07T16:02:15.418Z,96418.16
2019-05-07T16:04:43.800Z,96423.11
2019-05-07T16:07:13.287Z,96414.09
2019-05-07T16:09:44.408Z,96417.20
2019-05-07T16:12:14.069Z,96356.55
2019-05-07T16:14:42.373Z,96408.46
2019-05-07T16:17:12.979Z,96412.28
2019-05-07T16:19:42.552Z,96408.89
2019-05-07T16:22:13.597Z,96414.13
2019-05-07T16:24:41.921Z,96411.61
2019-05-07T16:27:12.173Z,96398.21
2019-05-07T16:29:42.086Z,96400.17
2019-05-07T16:32:10.492Z,96396.88
2019-05-07T16:34:39.083Z,96402.60
2019-05-07T16:37:07.728Z,96395.78
2019-05-07T16:39:36.070Z,96397.98
2019-05-07T16:42:04.480Z,96389.53
2019-05-07T16:44:33.170Z,96384.06
2019-05-07T16:47:02.802Z,96383.02
2019-05-07T16:49:31.847Z,96382.82
2019-05-07T16:52:01.824Z,96378.53
2019-05-07T16:54:30.410Z,96372.77
2019-05-07T16:57:15.403Z,96370.37
2019-05-07T16:59:43.772Z,96369.70
2019-05-07T17:02:13.735Z,96364.08
2019-05-07T17:04:43.745Z,96357.78
2019-05-07T17:07:13.757Z,96361.72
2019-05-07T17:09:42.462Z,96356.03
2019-05-07T17:12:12.461Z,96365.59
2019-05-07T17:14:42.611Z,96362.72
2019-05-07T17:17:12.084Z,96352.75
2019-05-07T17:19:42.502Z,96351.13
2019-05-07T17:22:12.098Z,96353.79
2019-05-07T17:24:42.287Z,96341.73
2019-05-07T17:27:11.906Z,96345.27
2019-05-07T17:29:42.781Z,96344.77
2019-05-07T17:32:12.919Z,96340.90
2019-05-07T17:34:42.118Z,96350.67
2019-05-07T17:37:12.496Z,96352.84
2019-05-07T17:39:42.553Z,96353.66
2019-05-07T17:42:11.852Z,96347.66
2019-05-07T17:44:40.317Z,96339.02
2019-05-07T17:47:08.685Z,96344.97
2019-05-07T17:49:38.646Z,96346.39
2019-05-07T17:52:09.689Z,96346.39
2019-05-07T17:54:37.277Z,96341.19
2019-05-07T17:57:05.657Z,96340.81
2019-05-07T17:59:34.070Z,96341.66
2019-05-07T18:02:12.765Z,96342.06
2019-05-07T18:04:50.755Z,96345.32
2019-05-07T18:07:12.931Z,96340.92
2019-05-07T18:09:42.383Z,96339.67
2019-05-07T18:12:12.090Z,96341.06
2019-05-07T18:14:42.419Z,96332.42
2019-05-07T18:17:18.440Z,96337.05
2019-05-07T18:19:47.444Z,96331.64
2019-05-07T18:22:15.940Z,96336.94
2019-05-07T18:24:44.237Z,96339.45
2019-05-07T18:27:14.229Z,96332.69
2019-05-07T18:29:42.836Z,96328.41
2019-05-07T18:32:12.439Z,96321.46
2019-05-07T18:34:42.768Z,96322.16
2019-05-07T18:37:12.581Z,96326.06
2019-05-07T18:39:42.813Z,96332.30
2019-05-07T18:42:12.663Z,96334.95
2019-05-07T18:44:41.908Z,96346.72
2019-05-07T18:47:10.280Z,96346.56
2019-05-07T18:49:38.655Z,96347.31
2019-05-07T18:52:08.887Z,96339.23
2019-05-07T18:54:37.183Z,96348.95
2019-05-07T18:57:05.589Z,96351.11
2019-05-07T18:59:35.668Z,96353.75
2019-05-07T19:02:04.099Z,96351.00
2019-05-07T19:04:32.899Z,96361.52
2019-05-07T19:07:02.521Z,96357.03
2019-05-07T19:09:31.977Z,96364.45
2019-05-07T19:12:00.493Z,96359.84
2019-05-07T19:14:28.874Z,96360.45
2019-05-07T19:16:57.269Z,96355.03
2019-05-07T19:19:25.663Z,96364.36
2019-05-07T19:21:54.144Z,96364.73
2019-05-07T19:24:26.074Z,96363.94
2019-05-07T19:26:53.005Z,96358.41
2019-05-07T19:29:24.500Z,96365.40
2019-05-07T19:31:52.893Z,96361.84
2019-05-07T19:34:21.943Z,96358.80
2019-05-07T19:36:52.015Z,96362.67
2019-05-07T19:39:20.470Z,96363.23
2019-05-07T19:41:48.901Z,96360.63
2019-05-07T19:44:17.230Z,96359.80
2019-05-07T19:46:45.526Z,96362.25
2019-05-07T19:49:13.939Z,96360.48
2019-05-07T19:51:42.883Z,96359.88
2019-05-07T19:54:11.239Z,96362.10
2019-05-07T19:56:42.536Z,96360.78
2019-05-07T19:59:12.465Z,96363.22
2019-05-07T20:01:42.730Z,96365.31
2019-05-07T20:04:13.190Z,96357.10
2019-05-07T20:06:42.858Z,96359.77
2019-05-07T20:09:14.782Z,96356.44
2019-05-07T20:11:46.459Z,96354.16
2019-05-07T20:14:14.814Z,96350.00
2019-05-07T20:16:43.176Z,96352.75
2019-05-07T20:19:12.139Z,96349.71
2019-05-07T20:21:40.741Z,96350.20
2019-05-07T20:24:09.182Z,96354.39
2019-05-07T20:26:37.560Z,96352.36
2019-05-07T20:29:06.016Z,96341.98
2019-05-07T20:31:34.432Z,96347.38
2019-05-07T20:34:02.816Z,96349.42
2019-05-07T20:36:32.737Z,96349.63
2019-05-07T20:39:02.173Z,96343.71
2019-05-07T20:41:32.866Z,96335.14
2019-05-07T20:44:02.896Z,96330.69
2019-05-07T20:46:31.995Z,96330.69
2019-05-07T20:49:02.718Z,96326.05
2019-05-07T20:51:32.495Z,96323.09
2019-05-07T20:54:04.927Z,96325.67
2019-05-07T20:56:46.892Z,96323.94
2019-05-07T20:59:15.305Z,96332.45
2019-05-07T21:01:43.637Z,96332.45
2019-05-07T21:04:12.937Z,96326.74
2019-05-07T21:06:43.224Z,96321.45
2019-05-07T21:09:14.583Z,96317.52
2019-05-07T21:11:43.229Z,96306.16
2019-05-07T21:14:12.190Z,96296.20
2019-05-07T21:16:42.448Z,96291.48
2019-05-07T21:19:12.789Z,96244.74
2019-05-07T21:21:42.159Z,96285.04
2019-05-07T21:24:12.823Z,96278.55
2019-05-07T21:26:42.410Z,96275.22
2019-05-07T21:29:13.494Z,96274.89
2019-05-07T21:31:43.071Z,96279.39
2019-05-07T21:34:12.350Z,96273.82
2019-05-07T21:36:42.962Z,96273.82
2019-05-07T21:39:12.985Z,96269.56
2019-05-07T21:41:42.614Z,96260.97
2019-05-07T21:44:11.214Z,96259.66
2019-05-07T21:46:39.648Z,96254.48
2019-05-07T21:49:07.954Z,96252.80
2019-05-07T21:51:36.354Z,96259.16
2019-05-07T21:54:14.956Z,96265.71
2019-05-07T21:57:02.082Z,96266.61
2019-05-07T21:59:35.787Z,96263.33
2019-05-07T22:02:10.032Z,96269.97
2019-05-07T22:04:38.294Z,96265.71
2019-05-07T22:07:06.752Z,96271.46
2019-05-07T22:09:35.141Z,96262.38
2019-05-07T22:12:06.220Z,96253.27
2019-05-07T22:14:34.592Z,96255.94
2019-05-07T22:17:04.945Z,96256.91
2019-05-07T22:19:33.864Z,96252.42
2019-05-07T22:22:04.858Z,96237.66
2019-05-07T22:24:32.852Z,96238.16
2019-05-07T22:27:01.721Z,96234.46
2019-05-07T22:29:31.334Z,96236.63
2019-05-07T22:32:02.941Z,96228.84
2019-05-07T22:34:32.891Z,96228.05
2019-05-07T22:37:03.274Z,96225.31
2019-05-07T22:39:32.752Z,96230.39
2019-05-07T22:42:02.371Z,96226.09
2019-05-07T22:44:32.152Z,96227.94
2019-05-07T22:47:02.295Z,96220.47
2019-05-07T22:49:33.341Z,96221.36
2019-05-07T22:52:02.372Z,96219.38
2019-05-07T22:54:31.930Z,96219.94
2019-05-07T22:57:07.765Z,96218.00
2019-05-07T22:59:38.740Z,96208.34
2019-05-07T23:02:07.509Z,96210.41
2019-05-07T23:04:35.814Z,96215.84
2019-05-07T23:07:04.122Z,96207.76
2019-05-07T23:09:32.445Z,96204.72
2019-05-07T23:12:02.196Z,96202.36
2019-05-07T23:14:32.856Z,96200.58
2019-05-07T23:17:02.290Z,96188.63
2019-05-07T23:19:32.687Z,96187.61
2019-05-07T23:22:02.747Z,96173.20
2019-05-07T23:24:31.885Z,96175.95
2019-05-07T23:27:00.237Z,96177.13
2019-05-07T23:29:28.554Z,96175.83
2019-05-07T23:31:56.859Z,96186.14
2019-05-07T23:34:25.249Z,96181.76
2019-05-07T23:36:53.646Z,96179.48
2019-05-07T23:39:26.503Z,96182.81
2019-05-07T23:42:02.420Z,96176.70
2019-05-07T23:44:30.734Z,96172.70
2019-05-07T23:46:59.015Z,96168.73
2019-05-07T23:49:27.333Z,96170.09
2019-05-07T23:51:55.731Z,96172.20
2019-05-07T23:54:24.382Z,96171.35
2019-05-07T23:57:05.415Z,96168.23
2019-05-07T23:59:22.679Z,96170.09
